sensor_id;sensor_type;location;lat;lon;timestamp;P1;durP1;ratioP1;P2;durP2;ratioP2
35304;SDS011;26433;48.034;-1.764;2023-06-14T00:00:05;8.30;;;4.45;;
35304;SDS011;26433;48.034;-1.764;2023-06-14T00:05:09;9.00;;;3.95;;
35304;SDS011;26433;48.034;-1.764;2023-06-14T00:10:16;9.60;;;4.82;;
35304;SDS011;26433;48.034;-1.764;2023-06-14T00:15:20;7.72;;;4.50;;
35304;SDS011;26433;48.034;-1.764;2023-06-14T00:20:25;14.82;;;5.35;;
35304;SDS011;26433;48.034;-1.764;2023-06-14T00:25:31;8.57;;;4.53;;
35304;SDS011;26433;48.034;-1.764;2023-06-14T00:30:35;9.65;;;4.75;;
35304;SDS011;26433;48.034;-1.764;2023-06-14T00:35:39;9.87;;;4.70;;
35304;SDS011;26433;48.034;-1.764;2023-06-14T00:40:44;7.43;;;4.25;;
35304;SDS011;26433;48.034;-1.764;2023-06-14T00:45:48;10.20;;;5.07;;
35304;SDS011;26433;48.034;-1.764;2023-06-14T00:50:53;11.75;;;5.55;;
35304;SDS011;26433;48.034;-1.764;2023-06-14T00:55:59;10.68;;;5.70;;
35304;SDS011;26433;48.034;-1.764;2023-06-14T01:01:03;10.00;;;5.65;;
35304;SDS011;26433;48.034;-1.764;2023-06-14T01:06:10;11.05;;;5.97;;
35304;SDS011;26433;48.034;-1.764;2023-06-14T01:11:35;12.05;;;5.90;;
35304;SDS011;26433;48.034;-1.764;2023-06-14T01:16:43;11.82;;;6.12;;
35304;SDS011;26433;48.034;-1.764;2023-06-14T01:21:48;10.27;;;6.22;;
35304;SDS011;26433;48.034;-1.764;2023-06-14T01:26:54;12.55;;;6.40;;
35304;SDS011;26433;48.034;-1.764;2023-06-14T01:32:01;13.65;;;6.15;;
35304;SDS011;26433;48.034;-1.764;2023-06-14T01:37:06;14.87;;;6.87;;
35304;SDS011;26433;48.034;-1.764;2023-06-14T01:42:13;12.18;;;7.15;;
35304;SDS011;26433;48.034;-1.764;2023-06-14T01:47:17;13.40;;;6.18;;
35304;SDS011;26433;48.034;-1.764;2023-06-14T01:52:22;13.18;;;6.87;;
35304;SDS011;26433;48.034;-1.764;2023-06-14T01:57:28;12.88;;;7.00;;
35304;SDS011;26433;48.034;-1.764;2023-06-14T02:02:33;14.38;;;6.22;;
35304;SDS011;26433;48.034;-1.764;2023-06-14T02:07:37;13.77;;;6.25;;
35304;SDS011;26433;48.034;-1.764;2023-06-14T02:12:42;14.83;;;7.37;;
35304;SDS011;26433;48.034;-1.764;2023-06-14T02:17:46;16.15;;;7.87;;
35304;SDS011;26433;48.034;-1.764;2023-06-14T02:22:51;12.75;;;6.37;;
35304;SDS011;26433;48.034;-1.764;2023-06-14T02:27:56;16.47;;;8.03;;
35304;SDS011;26433;48.034;-1.764;2023-06-14T02:33:00;17.77;;;8.63;;
35304;SDS011;26433;48.034;-1.764;2023-06-14T02:38:03;16.80;;;7.33;;
35304;SDS011;26433;48.034;-1.764;2023-06-14T02:43:08;16.07;;;8.53;;
35304;SDS011;26433;48.034;-1.764;2023-06-14T02:48:13;16.73;;;7.43;;
35304;SDS011;26433;48.034;-1.764;2023-06-14T02:53:16;16.60;;;7.97;;
35304;SDS011;26433;48.034;-1.764;2023-06-14T02:58:22;18.20;;;7.90;;
35304;SDS011;26433;48.034;-1.764;2023-06-14T03:03:27;18.27;;;8.43;;
35304;SDS011;26433;48.034;-1.764;2023-06-14T03:08:31;15.68;;;8.02;;
35304;SDS011;26433;48.034;-1.764;2023-06-14T03:13:42;18.00;;;8.57;;
35304;SDS011;26433;48.034;-1.764;2023-06-14T03:18:48;18.45;;;8.93;;
35304;SDS011;26433;48.034;-1.764;2023-06-14T03:23:52;14.48;;;7.78;;
35304;SDS011;26433;48.034;-1.764;2023-06-14T03:28:58;20.42;;;9.23;;
35304;SDS011;26433;48.034;-1.764;2023-06-14T03:34:01;18.42;;;8.63;;
35304;SDS011;26433;48.034;-1.764;2023-06-14T03:39:05;18.80;;;9.00;;
35304;SDS011;26433;48.034;-1.764;2023-06-14T03:44:11;20.73;;;9.80;;
35304;SDS011;26433;48.034;-1.764;2023-06-14T03:49:17;18.05;;;8.55;;
35304;SDS011;26433;48.034;-1.764;2023-06-14T03:54:21;17.90;;;9.15;;
35304;SDS011;26433;48.034;-1.764;2023-06-14T03:59:46;23.80;;;10.77;;
35304;SDS011;26433;48.034;-1.764;2023-06-14T04:04:50;20.25;;;8.32;;
35304;SDS011;26433;48.034;-1.764;2023-06-14T04:09:57;18.73;;;8.43;;
35304;SDS011;26433;48.034;-1.764;2023-06-14T04:15:02;18.23;;;8.93;;
35304;SDS011;26433;48.034;-1.764;2023-06-14T04:20:21;19.30;;;8.82;;
35304;SDS011;26433;48.034;-1.764;2023-06-14T04:25:26;19.10;;;8.55;;
35304;SDS011;26433;48.034;-1.764;2023-06-14T04:35:38;19.70;;;8.23;;
35304;SDS011;26433;48.034;-1.764;2023-06-14T04:40:43;19.42;;;8.73;;
35304;SDS011;26433;48.034;-1.764;2023-06-14T04:45:50;15.25;;;8.07;;
35304;SDS011;26433;48.034;-1.764;2023-06-14T04:50:54;16.87;;;8.13;;
35304;SDS011;26433;48.034;-1.764;2023-06-14T04:55:58;19.62;;;9.15;;
35304;SDS011;26433;48.034;-1.764;2023-06-14T05:01:04;20.23;;;9.55;;
35304;SDS011;26433;48.034;-1.764;2023-06-14T05:06:11;19.42;;;9.25;;
35304;SDS011;26433;48.034;-1.764;2023-06-14T05:11:15;20.67;;;9.48;;
35304;SDS011;26433;48.034;-1.764;2023-06-14T05:16:21;17.75;;;8.55;;
35304;SDS011;26433;48.034;-1.764;2023-06-14T05:21:27;25.50;;;9.43;;
35304;SDS011;26433;48.034;-1.764;2023-06-14T05:26:31;18.40;;;8.53;;
35304;SDS011;26433;48.034;-1.764;2023-06-14T05:31:36;16.08;;;7.95;;
35304;SDS011;26433;48.034;-1.764;2023-06-14T05:36:40;14.57;;;8.35;;
35304;SDS011;26433;48.034;-1.764;2023-06-14T05:41:44;18.97;;;8.40;;
35304;SDS011;26433;48.034;-1.764;2023-06-14T05:46:52;15.52;;;7.55;;
35304;SDS011;26433;48.034;-1.764;2023-06-14T05:51:56;13.05;;;6.72;;
35304;SDS011;26433;48.034;-1.764;2023-06-14T05:56:59;15.80;;;7.80;;
35304;SDS011;26433;48.034;-1.764;2023-06-14T06:02:06;22.10;;;9.50;;
35304;SDS011;26433;48.034;-1.764;2023-06-14T06:07:10;19.08;;;8.05;;
35304;SDS011;26433;48.034;-1.764;2023-06-14T06:12:14;15.30;;;7.00;;
35304;SDS011;26433;48.034;-1.764;2023-06-14T06:17:18;15.03;;;7.43;;
35304;SDS011;26433;48.034;-1.764;2023-06-14T06:22:22;13.32;;;6.55;;
35304;SDS011;26433;48.034;-1.764;2023-06-14T06:27:26;16.65;;;7.25;;
35304;SDS011;26433;48.034;-1.764;2023-06-14T06:32:31;13.63;;;6.93;;
35304;SDS011;26433;48.034;-1.764;2023-06-14T06:37:35;12.77;;;6.62;;
35304;SDS011;26433;48.034;-1.764;2023-06-14T06:42:38;13.17;;;6.90;;
35304;SDS011;26433;48.034;-1.764;2023-06-14T06:47:47;13.93;;;7.55;;
35304;SDS011;26433;48.034;-1.764;2023-06-14T06:52:51;12.98;;;5.82;;
35304;SDS011;26433;48.034;-1.764;2023-06-14T06:57:55;11.38;;;5.65;;
35304;SDS011;26433;48.034;-1.764;2023-06-14T07:03:00;13.10;;;7.03;;
35304;SDS011;26433;48.034;-1.764;2023-06-14T07:08:06;10.05;;;6.03;;
35304;SDS011;26433;48.034;-1.764;2023-06-14T07:13:09;7.75;;;4.87;;
35304;SDS011;26433;48.034;-1.764;2023-06-14T07:18:15;9.10;;;4.87;;
35304;SDS011;26433;48.034;-1.764;2023-06-14T07:23:18;6.90;;;3.75;;
35304;SDS011;26433;48.034;-1.764;2023-06-14T07:28:22;5.78;;;3.90;;
35304;SDS011;26433;48.034;-1.764;2023-06-14T07:33:27;10.20;;;4.90;;
35304;SDS011;26433;48.034;-1.764;2023-06-14T07:38:31;8.27;;;3.50;;
35304;SDS011;26433;48.034;-1.764;2023-06-14T07:43:35;11.33;;;4.10;;
35304;SDS011;26433;48.034;-1.764;2023-06-14T07:48:40;10.10;;;4.40;;
35304;SDS011;26433;48.034;-1.764;2023-06-14T07:53:44;11.02;;;4.55;;
35304;SDS011;26433;48.034;-1.764;2023-06-14T07:58:48;10.23;;;3.97;;
35304;SDS011;26433;48.034;-1.764;2023-06-14T08:03:53;6.33;;;3.83;;
35304;SDS011;26433;48.034;-1.764;2023-06-14T08:08:57;8.07;;;3.87;;
35304;SDS011;26433;48.034;-1.764;2023-06-14T08:14:00;6.70;;;4.00;;
35304;SDS011;26433;48.034;-1.764;2023-06-14T08:19:06;4.67;;;3.63;;
35304;SDS011;26433;48.034;-1.764;2023-06-14T08:24:10;7.10;;;3.40;;
35304;SDS011;26433;48.034;-1.764;2023-06-14T08:29:15;4.43;;;3.08;;
35304;SDS011;26433;48.034;-1.764;2023-06-14T08:34:20;6.97;;;3.67;;
35304;SDS011;26433;48.034;-1.764;2023-06-14T08:39:25;10.07;;;4.03;;
35304;SDS011;26433;48.034;-1.764;2023-06-14T08:44:29;9.90;;;3.47;;
35304;SDS011;26433;48.034;-1.764;2023-06-14T08:49:34;6.10;;;3.72;;
35304;SDS011;26433;48.034;-1.764;2023-06-14T08:54:41;4.25;;;2.40;;
35304;SDS011;26433;48.034;-1.764;2023-06-14T08:59:46;6.70;;;3.10;;
35304;SDS011;26433;48.034;-1.764;2023-06-14T09:04:55;4.72;;;2.83;;
35304;SDS011;26433;48.034;-1.764;2023-06-14T09:10:06;4.65;;;2.85;;
35304;SDS011;26433;48.034;-1.764;2023-06-14T09:15:11;3.78;;;2.53;;
35304;SDS011;26433;48.034;-1.764;2023-06-14T09:20:17;6.37;;;3.00;;
35304;SDS011;26433;48.034;-1.764;2023-06-14T09:25:21;4.75;;;3.00;;
35304;SDS011;26433;48.034;-1.764;2023-06-14T09:30:40;9.77;;;3.15;;
35304;SDS011;26433;48.034;-1.764;2023-06-14T09:35:46;4.90;;;2.80;;
35304;SDS011;26433;48.034;-1.764;2023-06-14T09:40:55;6.43;;;3.03;;
35304;SDS011;26433;48.034;-1.764;2023-06-14T09:46:00;5.25;;;3.10;;
35304;SDS011;26433;48.034;-1.764;2023-06-14T09:51:05;6.55;;;2.60;;
35304;SDS011;26433;48.034;-1.764;2023-06-14T09:56:09;6.15;;;3.03;;
35304;SDS011;26433;48.034;-1.764;2023-06-14T10:01:14;4.18;;;2.70;;
35304;SDS011;26433;48.034;-1.764;2023-06-14T10:06:21;4.35;;;3.00;;
35304;SDS011;26433;48.034;-1.764;2023-06-14T10:11:27;6.95;;;3.12;;
35304;SDS011;26433;48.034;-1.764;2023-06-14T10:16:31;3.22;;;2.92;;
35304;SDS011;26433;48.034;-1.764;2023-06-14T10:21:43;4.60;;;3.83;;
35304;SDS011;26433;48.034;-1.764;2023-06-14T10:26:55;4.60;;;2.67;;
35304;SDS011;26433;48.034;-1.764;2023-06-14T10:32:01;3.97;;;2.83;;
35304;SDS011;26433;48.034;-1.764;2023-06-14T10:37:12;14.50;;;3.20;;
35304;SDS011;26433;48.034;-1.764;2023-06-14T10:42:17;3.78;;;2.62;;
35304;SDS011;26433;48.034;-1.764;2023-06-14T10:47:23;3.30;;;2.85;;
35304;SDS011;26433;48.034;-1.764;2023-06-14T10:52:34;3.40;;;2.78;;
35304;SDS011;26433;48.034;-1.764;2023-06-14T10:57:41;3.08;;;2.40;;
35304;SDS011;26433;48.034;-1.764;2023-06-14T11:03:04;6.60;;;2.40;;
35304;SDS011;26433;48.034;-1.764;2023-06-14T11:08:39;5.80;;;2.80;;
35304;SDS011;26433;48.034;-1.764;2023-06-14T11:13:54;2.85;;;2.42;;
35304;SDS011;26433;48.034;-1.764;2023-06-14T11:18:58;2.10;;;1.90;;
35304;SDS011;26433;48.034;-1.764;2023-06-14T11:24:09;3.72;;;2.45;;
35304;SDS011;26433;48.034;-1.764;2023-06-14T11:29:15;3.67;;;2.10;;
35304;SDS011;26433;48.034;-1.764;2023-06-14T11:34:19;4.12;;;3.28;;
35304;SDS011;26433;48.034;-1.764;2023-06-14T11:39:25;4.20;;;2.42;;
35304;SDS011;26433;48.034;-1.764;2023-06-14T11:44:29;4.18;;;2.15;;
35304;SDS011;26433;48.034;-1.764;2023-06-14T11:49:35;5.20;;;2.10;;
35304;SDS011;26433;48.034;-1.764;2023-06-14T11:54:40;3.17;;;2.58;;
35304;SDS011;26433;48.034;-1.764;2023-06-14T11:59:44;4.43;;;2.40;;
35304;SDS011;26433;48.034;-1.764;2023-06-14T12:04:49;2.45;;;2.25;;
35304;SDS011;26433;48.034;-1.764;2023-06-14T12:10:07;2.78;;;2.28;;
35304;SDS011;26433;48.034;-1.764;2023-06-14T12:15:12;3.58;;;2.00;;
35304;SDS011;26433;48.034;-1.764;2023-06-14T12:20:17;3.83;;;2.33;;
35304;SDS011;26433;48.034;-1.764;2023-06-14T12:25:30;4.03;;;2.60;;
35304;SDS011;26433;48.034;-1.764;2023-06-14T12:30:35;2.87;;;2.25;;
35304;SDS011;26433;48.034;-1.764;2023-06-14T12:35:40;3.45;;;2.35;;
35304;SDS011;26433;48.034;-1.764;2023-06-14T12:40:45;2.95;;;2.45;;
35304;SDS011;26433;48.034;-1.764;2023-06-14T12:45:49;3.67;;;2.70;;
35304;SDS011;26433;48.034;-1.764;2023-06-14T12:50:52;2.85;;;2.37;;
35304;SDS011;26433;48.034;-1.764;2023-06-14T12:55:58;5.60;;;2.55;;
35304;SDS011;26433;48.034;-1.764;2023-06-14T13:01:01;2.80;;;2.50;;
35304;SDS011;26433;48.034;-1.764;2023-06-14T13:06:05;5.10;;;2.78;;
35304;SDS011;26433;48.034;-1.764;2023-06-14T13:11:10;5.20;;;2.10;;
35304;SDS011;26433;48.034;-1.764;2023-06-14T13:16:14;4.80;;;2.37;;
35304;SDS011;26433;48.034;-1.764;2023-06-14T13:21:17;5.35;;;2.08;;
35304;SDS011;26433;48.034;-1.764;2023-06-14T13:26:22;2.70;;;2.33;;
35304;SDS011;26433;48.034;-1.764;2023-06-14T13:31:26;2.65;;;2.40;;
35304;SDS011;26433;48.034;-1.764;2023-06-14T13:36:30;2.95;;;2.08;;
35304;SDS011;26433;48.034;-1.764;2023-06-14T13:41:35;3.10;;;2.12;;
35304;SDS011;26433;48.034;-1.764;2023-06-14T13:46:39;3.42;;;2.60;;
35304;SDS011;26433;48.034;-1.764;2023-06-14T13:51:44;4.32;;;2.35;;
35304;SDS011;26433;48.034;-1.764;2023-06-14T13:56:49;3.42;;;2.50;;
35304;SDS011;26433;48.034;-1.764;2023-06-14T14:01:53;3.40;;;2.78;;
35304;SDS011;26433;48.034;-1.764;2023-06-14T14:06:56;4.22;;;2.53;;
35304;SDS011;26433;48.034;-1.764;2023-06-14T14:12:02;3.85;;;2.37;;
35304;SDS011;26433;48.034;-1.764;2023-06-14T14:17:06;2.30;;;1.90;;
35304;SDS011;26433;48.034;-1.764;2023-06-14T14:22:10;3.28;;;2.30;;
35304;SDS011;26433;48.034;-1.764;2023-06-14T14:27:15;2.58;;;2.28;;
35304;SDS011;26433;48.034;-1.764;2023-06-14T14:32:19;2.85;;;2.45;;
35304;SDS011;26433;48.034;-1.764;2023-06-14T14:37:23;4.78;;;2.50;;
35304;SDS011;26433;48.034;-1.764;2023-06-14T14:42:28;2.87;;;2.42;;
35304;SDS011;26433;48.034;-1.764;2023-06-14T14:47:32;4.03;;;2.10;;
35304;SDS011;26433;48.034;-1.764;2023-06-14T14:52:35;4.35;;;2.33;;
35304;SDS011;26433;48.034;-1.764;2023-06-14T14:57:40;3.70;;;2.80;;
35304;SDS011;26433;48.034;-1.764;2023-06-14T15:02:44;2.62;;;2.25;;
35304;SDS011;26433;48.034;-1.764;2023-06-14T15:07:48;3.33;;;2.83;;
35304;SDS011;26433;48.034;-1.764;2023-06-14T15:17:56;3.00;;;2.30;;
35304;SDS011;26433;48.034;-1.764;2023-06-14T15:23:00;4.85;;;2.58;;
35304;SDS011;26433;48.034;-1.764;2023-06-14T15:33:10;2.70;;;2.37;;
35304;SDS011;26433;48.034;-1.764;2023-06-14T15:43:19;4.47;;;2.22;;
35304;SDS011;26433;48.034;-1.764;2023-06-14T15:48:24;5.07;;;3.03;;
35304;SDS011;26433;48.034;-1.764;2023-06-14T15:58:33;6.33;;;2.27;;
35304;SDS011;26433;48.034;-1.764;2023-06-14T16:03:37;6.60;;;2.55;;
35304;SDS011;26433;48.034;-1.764;2023-06-14T16:08:41;4.37;;;3.00;;
35304;SDS011;26433;48.034;-1.764;2023-06-14T16:13:46;2.65;;;2.25;;
35304;SDS011;26433;48.034;-1.764;2023-06-14T16:18:49;3.65;;;2.50;;
35304;SDS011;26433;48.034;-1.764;2023-06-14T16:28:58;2.37;;;2.17;;
35304;SDS011;26433;48.034;-1.764;2023-06-14T16:34:02;4.87;;;2.80;;
35304;SDS011;26433;48.034;-1.764;2023-06-14T16:39:10;7.43;;;2.80;;
35304;SDS011;26433;48.034;-1.764;2023-06-14T16:44:15;3.75;;;2.30;;
35304;SDS011;26433;48.034;-1.764;2023-06-14T16:49:20;5.93;;;2.97;;
35304;SDS011;26433;48.034;-1.764;2023-06-14T16:54:24;3.47;;;2.58;;
35304;SDS011;26433;48.034;-1.764;2023-06-14T16:59:29;3.50;;;2.40;;
35304;SDS011;26433;48.034;-1.764;2023-06-14T17:04:33;9.00;;;2.58;;
35304;SDS011;26433;48.034;-1.764;2023-06-14T17:09:37;3.62;;;2.33;;
35304;SDS011;26433;48.034;-1.764;2023-06-14T17:14:45;3.20;;;2.28;;
35304;SDS011;26433;48.034;-1.764;2023-06-14T17:19:50;4.10;;;2.12;;
35304;SDS011;26433;48.034;-1.764;2023-06-14T17:24:54;2.50;;;2.30;;
35304;SDS011;26433;48.034;-1.764;2023-06-14T17:29:59;3.50;;;2.40;;
35304;SDS011;26433;48.034;-1.764;2023-06-14T17:35:03;5.00;;;2.00;;
35304;SDS011;26433;48.034;-1.764;2023-06-14T17:40:08;3.40;;;2.40;;
35304;SDS011;26433;48.034;-1.764;2023-06-14T17:45:13;5.37;;;2.53;;
35304;SDS011;26433;48.034;-1.764;2023-06-14T17:50:17;2.50;;;1.87;;
35304;SDS011;26433;48.034;-1.764;2023-06-14T17:55:22;6.37;;;2.47;;
35304;SDS011;26433;48.034;-1.764;2023-06-14T18:00:27;2.95;;;2.03;;
35304;SDS011;26433;48.034;-1.764;2023-06-14T18:05:30;2.75;;;2.12;;
35304;SDS011;26433;48.034;-1.764;2023-06-14T18:10:34;2.33;;;1.75;;
35304;SDS011;26433;48.034;-1.764;2023-06-14T18:15:41;6.37;;;2.65;;
35304;SDS011;26433;48.034;-1.764;2023-06-14T18:20:44;2.03;;;1.80;;
35304;SDS011;26433;48.034;-1.764;2023-06-14T18:25:48;2.17;;;1.67;;
35304;SDS011;26433;48.034;-1.764;2023-06-14T18:30:53;2.35;;;2.12;;
35304;SDS011;26433;48.034;-1.764;2023-06-14T18:35:57;3.53;;;2.03;;
35304;SDS011;26433;48.034;-1.764;2023-06-14T18:41:00;4.30;;;2.28;;
35304;SDS011;26433;48.034;-1.764;2023-06-14T18:46:06;4.25;;;2.03;;
35304;SDS011;26433;48.034;-1.764;2023-06-14T18:51:09;6.93;;;2.05;;
35304;SDS011;26433;48.034;-1.764;2023-06-14T18:56:13;4.68;;;1.90;;
35304;SDS011;26433;48.034;-1.764;2023-06-14T19:01:18;8.88;;;2.10;;
35304;SDS011;26433;48.034;-1.764;2023-06-14T19:06:22;3.42;;;1.92;;
35304;SDS011;26433;48.034;-1.764;2023-06-14T19:11:27;2.53;;;1.65;;
35304;SDS011;26433;48.034;-1.764;2023-06-14T19:16:32;11.23;;;2.20;;
35304;SDS011;26433;48.034;-1.764;2023-06-14T19:21:36;3.85;;;1.62;;
35304;SDS011;26433;48.034;-1.764;2023-06-14T19:26:40;3.67;;;2.40;;
35304;SDS011;26433;48.034;-1.764;2023-06-14T19:31:45;4.18;;;1.58;;
35304;SDS011;26433;48.034;-1.764;2023-06-14T19:36:48;4.72;;;1.60;;
35304;SDS011;26433;48.034;-1.764;2023-06-14T19:41:52;3.62;;;1.52;;
35304;SDS011;26433;48.034;-1.764;2023-06-14T19:46:58;4.68;;;1.67;;
35304;SDS011;26433;48.034;-1.764;2023-06-14T19:52:01;5.32;;;1.62;;
35304;SDS011;26433;48.034;-1.764;2023-06-14T19:57:06;6.32;;;2.42;;
35304;SDS011;26433;48.034;-1.764;2023-06-14T20:02:11;2.22;;;1.37;;
35304;SDS011;26433;48.034;-1.764;2023-06-14T20:07:14;8.30;;;2.30;;
35304;SDS011;26433;48.034;-1.764;2023-06-14T20:12:18;2.53;;;1.67;;
35304;SDS011;26433;48.034;-1.764;2023-06-14T20:17:23;1.67;;;1.58;;
35304;SDS011;26433;48.034;-1.764;2023-06-14T20:22:27;2.45;;;1.50;;
35304;SDS011;26433;48.034;-1.764;2023-06-14T20:27:31;2.22;;;1.40;;
35304;SDS011;26433;48.034;-1.764;2023-06-14T20:32:37;4.10;;;1.90;;
35304;SDS011;26433;48.034;-1.764;2023-06-14T20:37:40;3.40;;;2.00;;
35304;SDS011;26433;48.034;-1.764;2023-06-14T20:42:44;3.10;;;1.85;;
35304;SDS011;26433;48.034;-1.764;2023-06-14T20:47:49;3.30;;;1.67;;
35304;SDS011;26433;48.034;-1.764;2023-06-14T20:52:53;2.53;;;1.50;;
35304;SDS011;26433;48.034;-1.764;2023-06-14T20:57:57;5.90;;;1.58;;
35304;SDS011;26433;48.034;-1.764;2023-06-14T21:03:02;1.48;;;1.17;;
35304;SDS011;26433;48.034;-1.764;2023-06-14T21:08:06;2.20;;;1.77;;
35304;SDS011;26433;48.034;-1.764;2023-06-14T21:13:10;4.35;;;1.58;;
35304;SDS011;26433;48.034;-1.764;2023-06-14T21:18:16;2.72;;;2.08;;
35304;SDS011;26433;48.034;-1.764;2023-06-14T21:23:20;4.30;;;1.70;;
35304;SDS011;26433;48.034;-1.764;2023-06-14T21:28:24;4.23;;;1.40;;
35304;SDS011;26433;48.034;-1.764;2023-06-14T21:33:29;2.00;;;1.30;;
35304;SDS011;26433;48.034;-1.764;2023-06-14T21:38:32;2.83;;;1.83;;
35304;SDS011;26433;48.034;-1.764;2023-06-14T21:43:36;3.83;;;1.87;;
35304;SDS011;26433;48.034;-1.764;2023-06-14T21:48:41;6.17;;;2.10;;
35304;SDS011;26433;48.034;-1.764;2023-06-14T21:53:45;2.95;;;1.77;;
35304;SDS011;26433;48.034;-1.764;2023-06-14T21:58:50;4.95;;;2.20;;
35304;SDS011;26433;48.034;-1.764;2023-06-14T22:03:55;7.80;;;2.60;;
35304;SDS011;26433;48.034;-1.764;2023-06-14T22:08:59;3.00;;;1.80;;
35304;SDS011;26433;48.034;-1.764;2023-06-14T22:14:04;3.83;;;1.60;;
35304;SDS011;26433;48.034;-1.764;2023-06-14T22:19:12;3.35;;;1.70;;
35304;SDS011;26433;48.034;-1.764;2023-06-14T22:24:17;2.35;;;2.00;;
35304;SDS011;26433;48.034;-1.764;2023-06-14T22:29:21;2.75;;;1.87;;
35304;SDS011;26433;48.034;-1.764;2023-06-14T22:34:26;3.28;;;1.85;;
35304;SDS011;26433;48.034;-1.764;2023-06-14T22:39:31;3.15;;;2.05;;
35304;SDS011;26433;48.034;-1.764;2023-06-14T22:44:34;5.07;;;1.70;;
35304;SDS011;26433;48.034;-1.764;2023-06-14T22:49:40;3.05;;;1.60;;
35304;SDS011;26433;48.034;-1.764;2023-06-14T22:54:48;3.08;;;1.80;;
35304;SDS011;26433;48.034;-1.764;2023-06-14T22:59:51;4.40;;;1.90;;
35304;SDS011;26433;48.034;-1.764;2023-06-14T23:04:56;6.17;;;2.30;;
35304;SDS011;26433;48.034;-1.764;2023-06-14T23:10:00;5.10;;;2.40;;
35304;SDS011;26433;48.034;-1.764;2023-06-14T23:15:04;3.47;;;2.27;;
35304;SDS011;26433;48.034;-1.764;2023-06-14T23:20:11;5.37;;;1.80;;
35304;SDS011;26433;48.034;-1.764;2023-06-14T23:25:15;3.65;;;1.70;;
35304;SDS011;26433;48.034;-1.764;2023-06-14T23:30:19;2.90;;;1.80;;
35304;SDS011;26433;48.034;-1.764;2023-06-14T23:35:24;3.13;;;1.63;;
35304;SDS011;26433;48.034;-1.764;2023-06-14T23:40:28;2.40;;;1.77;;
35304;SDS011;26433;48.034;-1.764;2023-06-14T23:45:31;4.70;;;1.77;;
35304;SDS011;26433;48.034;-1.764;2023-06-14T23:50:37;2.62;;;1.83;;
35304;SDS011;26433;48.034;-1.764;2023-06-14T23:55:41;4.22;;;2.12;;
